sensor_id;sensor_type;location;lat;lon;timestamp;P1;durP1;ratioP1;P2;durP2;ratioP2
41966;SDS011;27656;53.068;8.818;2023-12-20T00:02:10;18.23;;;2.37;;
41966;SDS011;27656;53.068;8.818;2023-12-20T00:04:36;11.50;;;1.67;;
41966;SDS011;27656;53.068;8.818;2023-12-20T00:07:03;10.93;;;2.27;;
41966;SDS011;27656;53.068;8.818;2023-12-20T00:09:30;10.83;;;2.20;;
41966;SDS011;27656;53.068;8.818;2023-12-20T00:11:57;10.50;;;1.70;;
41966;SDS011;27656;53.068;8.818;2023-12-20T00:14:23;12.53;;;2.00;;
41966;SDS011;27656;53.068;8.818;2023-12-20T00:16:49;19.50;;;2.23;;
41966;SDS011;27656;53.068;8.818;2023-12-20T00:19:16;16.47;;;1.70;;
41966;SDS011;27656;53.068;8.818;2023-12-20T00:21:43;10.50;;;1.80;;
41966;SDS011;27656;53.068;8.818;2023-12-20T00:24:09;10.07;;;1.90;;
41966;SDS011;27656;53.068;8.818;2023-12-20T00:26:36;11.90;;;1.77;;
41966;SDS011;27656;53.068;8.818;2023-12-20T00:29:02;13.77;;;2.13;;
41966;SDS011;27656;53.068;8.818;2023-12-20T00:31:29;11.37;;;1.37;;
41966;SDS011;27656;53.068;8.818;2023-12-20T00:33:56;10.17;;;2.00;;
41966;SDS011;27656;53.068;8.818;2023-12-20T00:36:22;9.17;;;1.40;;
41966;SDS011;27656;53.068;8.818;2023-12-20T00:38:49;7.07;;;1.80;;
41966;SDS011;27656;53.068;8.818;2023-12-20T00:41:16;16.70;;;2.13;;
41966;SDS011;27656;53.068;8.818;2023-12-20T00:43:42;9.30;;;1.97;;
41966;SDS011;27656;53.068;8.818;2023-12-20T00:46:09;8.60;;;1.53;;
41966;SDS011;27656;53.068;8.818;2023-12-20T00:48:35;12.97;;;2.20;;
41966;SDS011;27656;53.068;8.818;2023-12-20T00:51:02;9.83;;;2.10;;
41966;SDS011;27656;53.068;8.818;2023-12-20T00:53:29;17.13;;;2.03;;
41966;SDS011;27656;53.068;8.818;2023-12-20T00:55:56;11.47;;;2.73;;
41966;SDS011;27656;53.068;8.818;2023-12-20T00:58:24;7.97;;;1.97;;
41966;SDS011;27656;53.068;8.818;2023-12-20T01:00:51;6.33;;;1.90;;
41966;SDS011;27656;53.068;8.818;2023-12-20T01:03:18;10.93;;;1.80;;
41966;SDS011;27656;53.068;8.818;2023-12-20T01:05:44;12.87;;;2.30;;
41966;SDS011;27656;53.068;8.818;2023-12-20T01:08:11;13.30;;;1.93;;
41966;SDS011;27656;53.068;8.818;2023-12-20T01:10:37;16.17;;;2.00;;
41966;SDS011;27656;53.068;8.818;2023-12-20T01:13:04;12.90;;;2.73;;
41966;SDS011;27656;53.068;8.818;2023-12-20T01:15:30;12.90;;;2.03;;
41966;SDS011;27656;53.068;8.818;2023-12-20T01:17:57;8.90;;;1.90;;
41966;SDS011;27656;53.068;8.818;2023-12-20T01:20:25;10.13;;;2.10;;
41966;SDS011;27656;53.068;8.818;2023-12-20T01:22:52;13.50;;;2.10;;
41966;SDS011;27656;53.068;8.818;2023-12-20T01:25:19;9.60;;;1.90;;
41966;SDS011;27656;53.068;8.818;2023-12-20T01:27:45;10.97;;;1.80;;
41966;SDS011;27656;53.068;8.818;2023-12-20T01:30:12;11.03;;;2.13;;
41966;SDS011;27656;53.068;8.818;2023-12-20T01:32:41;10.80;;;1.80;;
41966;SDS011;27656;53.068;8.818;2023-12-20T01:35:08;12.47;;;1.80;;
41966;SDS011;27656;53.068;8.818;2023-12-20T01:37:35;9.53;;;1.73;;
41966;SDS011;27656;53.068;8.818;2023-12-20T01:40:01;12.93;;;2.10;;
41966;SDS011;27656;53.068;8.818;2023-12-20T01:42:28;10.80;;;2.00;;
41966;SDS011;27656;53.068;8.818;2023-12-20T01:44:55;8.47;;;1.87;;
41966;SDS011;27656;53.068;8.818;2023-12-20T01:47:22;13.67;;;2.20;;
41966;SDS011;27656;53.068;8.818;2023-12-20T01:49:49;7.53;;;1.70;;
41966;SDS011;27656;53.068;8.818;2023-12-20T01:52:16;10.47;;;1.87;;
41966;SDS011;27656;53.068;8.818;2023-12-20T01:54:43;10.47;;;2.03;;
41966;SDS011;27656;53.068;8.818;2023-12-20T01:57:10;8.53;;;1.80;;
41966;SDS011;27656;53.068;8.818;2023-12-20T01:59:37;9.83;;;1.70;;
41966;SDS011;27656;53.068;8.818;2023-12-20T02:02:05;12.10;;;1.93;;
41966;SDS011;27656;53.068;8.818;2023-12-20T02:04:34;11.43;;;2.10;;
41966;SDS011;27656;53.068;8.818;2023-12-20T02:07:01;7.53;;;1.70;;
41966;SDS011;27656;53.068;8.818;2023-12-20T02:09:29;13.17;;;1.83;;
41966;SDS011;27656;53.068;8.818;2023-12-20T02:11:56;5.83;;;1.50;;
41966;SDS011;27656;53.068;8.818;2023-12-20T02:14:22;10.20;;;1.83;;
41966;SDS011;27656;53.068;8.818;2023-12-20T02:16:49;10.47;;;1.90;;
41966;SDS011;27656;53.068;8.818;2023-12-20T02:19:16;9.23;;;2.90;;
41966;SDS011;27656;53.068;8.818;2023-12-20T02:21:44;9.40;;;1.50;;
41966;SDS011;27656;53.068;8.818;2023-12-20T02:24:10;8.40;;;1.57;;
41966;SDS011;27656;53.068;8.818;2023-12-20T02:26:36;6.77;;;1.63;;
41966;SDS011;27656;53.068;8.818;2023-12-20T02:29:03;7.57;;;2.00;;
41966;SDS011;27656;53.068;8.818;2023-12-20T02:31:30;11.43;;;2.57;;
41966;SDS011;27656;53.068;8.818;2023-12-20T02:33:56;12.90;;;1.87;;
41966;SDS011;27656;53.068;8.818;2023-12-20T02:36:23;14.47;;;1.93;;
41966;SDS011;27656;53.068;8.818;2023-12-20T02:38:49;13.13;;;2.03;;
41966;SDS011;27656;53.068;8.818;2023-12-20T02:41:17;11.37;;;1.60;;
41966;SDS011;27656;53.068;8.818;2023-12-20T02:43:44;12.03;;;2.13;;
41966;SDS011;27656;53.068;8.818;2023-12-20T02:46:11;15.37;;;2.03;;
41966;SDS011;27656;53.068;8.818;2023-12-20T02:48:41;7.63;;;1.80;;
41966;SDS011;27656;53.068;8.818;2023-12-20T02:51:08;14.00;;;1.97;;
41966;SDS011;27656;53.068;8.818;2023-12-20T02:53:34;10.17;;;1.70;;
41966;SDS011;27656;53.068;8.818;2023-12-20T02:56:01;11.80;;;1.70;;
41966;SDS011;27656;53.068;8.818;2023-12-20T02:58:27;10.57;;;1.63;;
41966;SDS011;27656;53.068;8.818;2023-12-20T03:00:54;11.23;;;1.80;;
41966;SDS011;27656;53.068;8.818;2023-12-20T03:03:20;14.17;;;2.23;;
41966;SDS011;27656;53.068;8.818;2023-12-20T03:05:47;7.30;;;1.63;;
41966;SDS011;27656;53.068;8.818;2023-12-20T03:08:14;7.47;;;2.13;;
41966;SDS011;27656;53.068;8.818;2023-12-20T03:10:40;10.70;;;2.10;;
41966;SDS011;27656;53.068;8.818;2023-12-20T03:13:07;11.80;;;1.93;;
41966;SDS011;27656;53.068;8.818;2023-12-20T03:15:33;12.00;;;1.70;;
41966;SDS011;27656;53.068;8.818;2023-12-20T03:18:00;12.77;;;2.20;;
41966;SDS011;27656;53.068;8.818;2023-12-20T03:20:29;12.40;;;1.83;;
41966;SDS011;27656;53.068;8.818;2023-12-20T03:23:02;10.07;;;1.87;;
41966;SDS011;27656;53.068;8.818;2023-12-20T03:25:29;11.77;;;1.90;;
41966;SDS011;27656;53.068;8.818;2023-12-20T03:27:56;9.50;;;1.97;;
41966;SDS011;27656;53.068;8.818;2023-12-20T03:30:22;9.10;;;2.10;;
41966;SDS011;27656;53.068;8.818;2023-12-20T03:32:49;13.00;;;2.20;;
41966;SDS011;27656;53.068;8.818;2023-12-20T03:35:15;11.10;;;2.60;;
41966;SDS011;27656;53.068;8.818;2023-12-20T03:37:42;12.60;;;2.20;;
41966;SDS011;27656;53.068;8.818;2023-12-20T03:40:09;10.13;;;1.90;;
41966;SDS011;27656;53.068;8.818;2023-12-20T03:42:36;13.57;;;2.40;;
41966;SDS011;27656;53.068;8.818;2023-12-20T03:45:02;17.80;;;2.93;;
41966;SDS011;27656;53.068;8.818;2023-12-20T03:47:29;11.70;;;2.40;;
41966;SDS011;27656;53.068;8.818;2023-12-20T03:49:56;10.10;;;2.40;;
41966;SDS011;27656;53.068;8.818;2023-12-20T03:52:22;12.80;;;2.80;;
41966;SDS011;27656;53.068;8.818;2023-12-20T03:54:49;11.60;;;3.00;;
41966;SDS011;27656;53.068;8.818;2023-12-20T03:57:15;11.80;;;2.63;;
41966;SDS011;27656;53.068;8.818;2023-12-20T03:59:42;14.93;;;2.83;;
41966;SDS011;27656;53.068;8.818;2023-12-20T04:02:08;11.50;;;2.97;;
41966;SDS011;27656;53.068;8.818;2023-12-20T04:04:35;11.90;;;2.93;;
41966;SDS011;27656;53.068;8.818;2023-12-20T04:07:02;12.17;;;2.90;;
41966;SDS011;27656;53.068;8.818;2023-12-20T04:09:30;11.30;;;2.80;;
41966;SDS011;27656;53.068;8.818;2023-12-20T04:11:57;17.27;;;3.20;;
41966;SDS011;27656;53.068;8.818;2023-12-20T04:14:24;12.07;;;3.30;;
41966;SDS011;27656;53.068;8.818;2023-12-20T04:16:51;13.50;;;3.03;;
41966;SDS011;27656;53.068;8.818;2023-12-20T04:19:17;15.57;;;3.30;;
41966;SDS011;27656;53.068;8.818;2023-12-20T04:21:44;13.73;;;3.57;;
41966;SDS011;27656;53.068;8.818;2023-12-20T04:24:10;12.87;;;3.20;;
41966;SDS011;27656;53.068;8.818;2023-12-20T04:26:37;21.70;;;3.53;;
41966;SDS011;27656;53.068;8.818;2023-12-20T04:29:03;13.70;;;3.60;;
41966;SDS011;27656;53.068;8.818;2023-12-20T04:31:30;11.60;;;3.00;;
41966;SDS011;27656;53.068;8.818;2023-12-20T04:33:56;9.47;;;2.73;;
41966;SDS011;27656;53.068;8.818;2023-12-20T04:36:23;13.57;;;3.00;;
41966;SDS011;27656;53.068;8.818;2023-12-20T04:38:51;13.53;;;3.13;;
41966;SDS011;27656;53.068;8.818;2023-12-20T04:41:17;18.23;;;3.63;;
41966;SDS011;27656;53.068;8.818;2023-12-20T04:43:45;24.43;;;4.30;;
41966;SDS011;27656;53.068;8.818;2023-12-20T04:46:11;14.70;;;3.70;;
41966;SDS011;27656;53.068;8.818;2023-12-20T04:48:38;14.13;;;3.70;;
41966;SDS011;27656;53.068;8.818;2023-12-20T04:51:05;16.83;;;3.83;;
41966;SDS011;27656;53.068;8.818;2023-12-20T04:53:32;11.70;;;4.20;;
41966;SDS011;27656;53.068;8.818;2023-12-20T04:56:01;13.00;;;4.37;;
41966;SDS011;27656;53.068;8.818;2023-12-20T04:58:28;14.43;;;3.97;;
41966;SDS011;27656;53.068;8.818;2023-12-20T05:00:57;15.13;;;3.83;;
41966;SDS011;27656;53.068;8.818;2023-12-20T05:03:24;15.23;;;4.17;;
41966;SDS011;27656;53.068;8.818;2023-12-20T05:05:53;17.57;;;3.87;;
41966;SDS011;27656;53.068;8.818;2023-12-20T05:08:19;11.70;;;3.50;;
41966;SDS011;27656;53.068;8.818;2023-12-20T05:10:46;18.57;;;3.90;;
41966;SDS011;27656;53.068;8.818;2023-12-20T05:13:12;11.93;;;3.33;;
41966;SDS011;27656;53.068;8.818;2023-12-20T05:15:39;19.43;;;3.37;;
41966;SDS011;27656;53.068;8.818;2023-12-20T05:18:06;17.23;;;3.43;;
41966;SDS011;27656;53.068;8.818;2023-12-20T05:20:32;13.93;;;3.23;;
41966;SDS011;27656;53.068;8.818;2023-12-20T05:22:59;18.67;;;4.03;;
41966;SDS011;27656;53.068;8.818;2023-12-20T05:25:25;17.50;;;3.47;;
41966;SDS011;27656;53.068;8.818;2023-12-20T05:27:52;15.17;;;3.17;;
41966;SDS011;27656;53.068;8.818;2023-12-20T05:30:19;22.93;;;3.53;;
41966;SDS011;27656;53.068;8.818;2023-12-20T05:32:45;20.93;;;3.53;;
41966;SDS011;27656;53.068;8.818;2023-12-20T05:35:12;16.00;;;3.67;;
41966;SDS011;27656;53.068;8.818;2023-12-20T05:37:39;19.67;;;3.40;;
41966;SDS011;27656;53.068;8.818;2023-12-20T05:40:05;18.37;;;3.30;;
41966;SDS011;27656;53.068;8.818;2023-12-20T05:42:32;24.37;;;3.17;;
41966;SDS011;27656;53.068;8.818;2023-12-20T05:44:59;21.67;;;3.83;;
41966;SDS011;27656;53.068;8.818;2023-12-20T05:47:26;26.27;;;3.70;;
41966;SDS011;27656;53.068;8.818;2023-12-20T05:49:52;20.97;;;3.70;;
41966;SDS011;27656;53.068;8.818;2023-12-20T05:52:19;17.63;;;3.73;;
41966;SDS011;27656;53.068;8.818;2023-12-20T05:54:46;16.33;;;3.63;;
41966;SDS011;27656;53.068;8.818;2023-12-20T05:57:12;15.17;;;3.20;;
41966;SDS011;27656;53.068;8.818;2023-12-20T05:59:39;18.50;;;3.33;;
41966;SDS011;27656;53.068;8.818;2023-12-20T06:02:06;14.87;;;3.23;;
41966;SDS011;27656;53.068;8.818;2023-12-20T06:04:32;12.23;;;2.80;;
41966;SDS011;27656;53.068;8.818;2023-12-20T06:06:59;18.57;;;3.57;;
41966;SDS011;27656;53.068;8.818;2023-12-20T06:09:29;20.63;;;3.40;;
41966;SDS011;27656;53.068;8.818;2023-12-20T06:11:57;11.20;;;3.20;;
41966;SDS011;27656;53.068;8.818;2023-12-20T06:14:23;18.27;;;3.27;;
41966;SDS011;27656;53.068;8.818;2023-12-20T06:16:50;22.27;;;3.53;;
41966;SDS011;27656;53.068;8.818;2023-12-20T06:19:17;17.67;;;3.17;;
41966;SDS011;27656;53.068;8.818;2023-12-20T06:21:44;23.93;;;3.20;;
41966;SDS011;27656;53.068;8.818;2023-12-20T06:24:10;10.80;;;3.60;;
41966;SDS011;27656;53.068;8.818;2023-12-20T06:26:37;19.60;;;3.67;;
41966;SDS011;27656;53.068;8.818;2023-12-20T06:29:04;19.27;;;3.23;;
41966;SDS011;27656;53.068;8.818;2023-12-20T06:31:31;17.93;;;3.20;;
41966;SDS011;27656;53.068;8.818;2023-12-20T06:34:01;16.07;;;4.17;;
41966;SDS011;27656;53.068;8.818;2023-12-20T06:36:28;23.03;;;3.60;;
41966;SDS011;27656;53.068;8.818;2023-12-20T06:38:54;21.47;;;3.97;;
41966;SDS011;27656;53.068;8.818;2023-12-20T06:41:21;23.13;;;4.07;;
41966;SDS011;27656;53.068;8.818;2023-12-20T06:43:47;13.63;;;3.80;;
41966;SDS011;27656;53.068;8.818;2023-12-20T06:46:16;19.33;;;3.67;;
41966;SDS011;27656;53.068;8.818;2023-12-20T06:48:44;18.33;;;3.30;;
41966;SDS011;27656;53.068;8.818;2023-12-20T06:51:15;19.27;;;3.30;;
41966;SDS011;27656;53.068;8.818;2023-12-20T06:53:43;23.40;;;4.53;;
41966;SDS011;27656;53.068;8.818;2023-12-20T06:56:12;22.53;;;3.90;;
41966;SDS011;27656;53.068;8.818;2023-12-20T06:58:43;22.80;;;3.53;;
41966;SDS011;27656;53.068;8.818;2023-12-20T07:01:12;18.27;;;3.87;;
41966;SDS011;27656;53.068;8.818;2023-12-20T07:03:39;17.53;;;3.33;;
41966;SDS011;27656;53.068;8.818;2023-12-20T07:06:07;19.73;;;3.37;;
41966;SDS011;27656;53.068;8.818;2023-12-20T07:08:42;22.17;;;4.10;;
41966;SDS011;27656;53.068;8.818;2023-12-20T07:11:09;26.07;;;3.90;;
41966;SDS011;27656;53.068;8.818;2023-12-20T07:13:38;21.53;;;3.63;;
41966;SDS011;27656;53.068;8.818;2023-12-20T07:16:05;19.37;;;3.60;;
41966;SDS011;27656;53.068;8.818;2023-12-20T07:18:32;21.67;;;4.43;;
41966;SDS011;27656;53.068;8.818;2023-12-20T07:20:59;23.70;;;4.23;;
41966;SDS011;27656;53.068;8.818;2023-12-20T07:23:26;24.40;;;3.80;;
41966;SDS011;27656;53.068;8.818;2023-12-20T07:25:55;17.33;;;3.43;;
41966;SDS011;27656;53.068;8.818;2023-12-20T07:28:21;16.17;;;3.47;;
41966;SDS011;27656;53.068;8.818;2023-12-20T07:30:51;14.63;;;3.47;;
41966;SDS011;27656;53.068;8.818;2023-12-20T07:33:24;17.03;;;4.60;;
41966;SDS011;27656;53.068;8.818;2023-12-20T07:35:53;21.30;;;4.53;;
41966;SDS011;27656;53.068;8.818;2023-12-20T07:38:20;17.60;;;4.07;;
41966;SDS011;27656;53.068;8.818;2023-12-20T07:40:46;19.83;;;5.07;;
41966;SDS011;27656;53.068;8.818;2023-12-20T07:43:19;20.83;;;3.77;;
41966;SDS011;27656;53.068;8.818;2023-12-20T07:45:46;23.33;;;3.53;;
41966;SDS011;27656;53.068;8.818;2023-12-20T07:48:22;18.60;;;4.40;;
41966;SDS011;27656;53.068;8.818;2023-12-20T07:50:52;13.37;;;3.43;;
41966;SDS011;27656;53.068;8.818;2023-12-20T07:53:20;13.13;;;3.53;;
41966;SDS011;27656;53.068;8.818;2023-12-20T07:55:46;21.30;;;3.53;;
41966;SDS011;27656;53.068;8.818;2023-12-20T07:58:13;16.67;;;3.70;;
41966;SDS011;27656;53.068;8.818;2023-12-20T08:00:40;23.60;;;4.30;;
41966;SDS011;27656;53.068;8.818;2023-12-20T08:03:06;20.57;;;3.57;;
41966;SDS011;27656;53.068;8.818;2023-12-20T08:05:36;19.53;;;3.77;;
41966;SDS011;27656;53.068;8.818;2023-12-20T08:08:05;19.50;;;3.87;;
41966;SDS011;27656;53.068;8.818;2023-12-20T08:10:35;15.73;;;4.20;;
41966;SDS011;27656;53.068;8.818;2023-12-20T08:13:01;19.67;;;3.67;;
41966;SDS011;27656;53.068;8.818;2023-12-20T08:15:31;20.50;;;3.77;;
41966;SDS011;27656;53.068;8.818;2023-12-20T08:17:57;22.17;;;4.07;;
41966;SDS011;27656;53.068;8.818;2023-12-20T08:20:24;16.10;;;3.80;;
41966;SDS011;27656;53.068;8.818;2023-12-20T08:23:13;16.33;;;3.43;;
41966;SDS011;27656;53.068;8.818;2023-12-20T08:25:39;15.77;;;3.57;;
41966;SDS011;27656;53.068;8.818;2023-12-20T08:28:06;20.60;;;3.70;;
41966;SDS011;27656;53.068;8.818;2023-12-20T08:30:32;15.37;;;3.13;;
41966;SDS011;27656;53.068;8.818;2023-12-20T08:33:02;14.37;;;3.20;;
41966;SDS011;27656;53.068;8.818;2023-12-20T08:35:31;17.80;;;3.60;;
41966;SDS011;27656;53.068;8.818;2023-12-20T08:37:58;21.63;;;3.70;;
41966;SDS011;27656;53.068;8.818;2023-12-20T08:40:25;16.73;;;3.17;;
41966;SDS011;27656;53.068;8.818;2023-12-20T08:42:54;18.67;;;3.50;;
41966;SDS011;27656;53.068;8.818;2023-12-20T08:45:21;21.93;;;4.43;;
41966;SDS011;27656;53.068;8.818;2023-12-20T08:47:48;20.73;;;4.47;;
41966;SDS011;27656;53.068;8.818;2023-12-20T08:50:15;20.67;;;3.97;;
41966;SDS011;27656;53.068;8.818;2023-12-20T08:52:44;23.63;;;3.97;;
41966;SDS011;27656;53.068;8.818;2023-12-20T08:55:11;18.43;;;4.20;;
41966;SDS011;27656;53.068;8.818;2023-12-20T08:57:39;16.47;;;3.50;;
41966;SDS011;27656;53.068;8.818;2023-12-20T09:00:06;14.20;;;2.90;;
41966;SDS011;27656;53.068;8.818;2023-12-20T09:02:34;15.97;;;2.83;;
41966;SDS011;27656;53.068;8.818;2023-12-20T09:05:02;14.17;;;3.23;;
41966;SDS011;27656;53.068;8.818;2023-12-20T09:07:33;16.90;;;3.23;;
41966;SDS011;27656;53.068;8.818;2023-12-20T09:09:59;20.17;;;3.93;;
41966;SDS011;27656;53.068;8.818;2023-12-20T09:12:29;16.70;;;3.83;;
41966;SDS011;27656;53.068;8.818;2023-12-20T09:14:56;17.30;;;3.53;;
41966;SDS011;27656;53.068;8.818;2023-12-20T09:17:22;12.73;;;3.23;;
41966;SDS011;27656;53.068;8.818;2023-12-20T09:19:50;12.20;;;3.00;;
41966;SDS011;27656;53.068;8.818;2023-12-20T09:22:19;18.70;;;3.23;;
41966;SDS011;27656;53.068;8.818;2023-12-20T09:24:45;10.13;;;3.03;;
41966;SDS011;27656;53.068;8.818;2023-12-20T09:27:17;13.23;;;3.53;;
41966;SDS011;27656;53.068;8.818;2023-12-20T09:29:44;14.53;;;3.40;;
41966;SDS011;27656;53.068;8.818;2023-12-20T09:32:13;23.70;;;3.73;;
41966;SDS011;27656;53.068;8.818;2023-12-20T09:34:41;21.07;;;3.70;;
41966;SDS011;27656;53.068;8.818;2023-12-20T09:37:08;14.83;;;3.37;;
41966;SDS011;27656;53.068;8.818;2023-12-20T09:39:55;11.70;;;3.23;;
41966;SDS011;27656;53.068;8.818;2023-12-20T09:45:27;18.03;;;3.20;;
41966;SDS011;27656;53.068;8.818;2023-12-20T09:47:56;12.30;;;2.63;;
41966;SDS011;27656;53.068;8.818;2023-12-20T09:50:28;15.97;;;3.10;;
41966;SDS011;27656;53.068;8.818;2023-12-20T09:52:58;11.97;;;2.93;;
41966;SDS011;27656;53.068;8.818;2023-12-20T09:55:28;12.30;;;2.77;;
41966;SDS011;27656;53.068;8.818;2023-12-20T09:57:59;10.17;;;2.83;;
41966;SDS011;27656;53.068;8.818;2023-12-20T10:00:26;4.17;;;1.07;;
41966;SDS011;27656;53.068;8.818;2023-12-20T10:05:26;4.77;;;0.90;;
41966;SDS011;27656;53.068;8.818;2023-12-20T10:08:00;2.43;;;0.87;;
41966;SDS011;27656;53.068;8.818;2023-12-20T10:10:28;6.13;;;0.73;;
41966;SDS011;27656;53.068;8.818;2023-12-20T10:13:10;5.17;;;0.90;;
41966;SDS011;27656;53.068;8.818;2023-12-20T10:15:39;1.53;;;0.60;;
41966;SDS011;27656;53.068;8.818;2023-12-20T10:18:08;3.63;;;0.50;;
41966;SDS011;27656;53.068;8.818;2023-12-20T10:20:35;3.50;;;0.70;;
41966;SDS011;27656;53.068;8.818;2023-12-20T10:23:02;4.73;;;0.73;;
41966;SDS011;27656;53.068;8.818;2023-12-20T10:25:29;2.83;;;0.50;;
41966;SDS011;27656;53.068;8.818;2023-12-20T10:28:11;3.77;;;1.07;;
41966;SDS011;27656;53.068;8.818;2023-12-20T10:30:40;3.27;;;0.70;;
41966;SDS011;27656;53.068;8.818;2023-12-20T10:33:23;2.13;;;0.70;;
41966;SDS011;27656;53.068;8.818;2023-12-20T10:35:59;5.57;;;0.80;;
41966;SDS011;27656;53.068;8.818;2023-12-20T10:38:26;3.10;;;0.80;;
41966;SDS011;27656;53.068;8.818;2023-12-20T10:40:57;5.43;;;0.80;;
41966;SDS011;27656;53.068;8.818;2023-12-20T10:43:26;3.77;;;0.60;;
41966;SDS011;27656;53.068;8.818;2023-12-20T10:45:55;3.90;;;0.83;;
41966;SDS011;27656;53.068;8.818;2023-12-20T10:48:28;7.90;;;0.90;;
41966;SDS011;27656;53.068;8.818;2023-12-20T10:51:00;5.53;;;0.90;;
41966;SDS011;27656;53.068;8.818;2023-12-20T10:53:27;5.73;;;0.90;;
41966;SDS011;27656;53.068;8.818;2023-12-20T10:55:55;2.07;;;0.80;;
41966;SDS011;27656;53.068;8.818;2023-12-20T10:58:24;2.73;;;0.70;;
41966;SDS011;27656;53.068;8.818;2023-12-20T11:00:54;5.73;;;0.70;;
41966;SDS011;27656;53.068;8.818;2023-12-20T11:03:32;3.37;;;0.90;;
41966;SDS011;27656;53.068;8.818;2023-12-20T11:06:08;2.20;;;0.60;;
41966;SDS011;27656;53.068;8.818;2023-12-20T11:08:47;6.07;;;1.00;;
41966;SDS011;27656;53.068;8.818;2023-12-20T11:14:06;4.80;;;1.00;;
41966;SDS011;27656;53.068;8.818;2023-12-20T11:16:37;4.37;;;1.30;;
41966;SDS011;27656;53.068;8.818;2023-12-20T11:19:17;6.00;;;1.07;;
41966;SDS011;27656;53.068;8.818;2023-12-20T11:21:44;3.63;;;1.17;;
41966;SDS011;27656;53.068;8.818;2023-12-20T11:24:22;9.53;;;0.97;;
41966;SDS011;27656;53.068;8.818;2023-12-20T11:26:50;4.00;;;1.10;;
41966;SDS011;27656;53.068;8.818;2023-12-20T11:29:29;7.73;;;1.17;;
41966;SDS011;27656;53.068;8.818;2023-12-20T11:34:48;8.17;;;1.20;;
41966;SDS011;27656;53.068;8.818;2023-12-20T11:37:15;5.07;;;1.10;;
41966;SDS011;27656;53.068;8.818;2023-12-20T11:39:44;6.90;;;1.37;;
41966;SDS011;27656;53.068;8.818;2023-12-20T11:42:11;7.33;;;1.63;;
41966;SDS011;27656;53.068;8.818;2023-12-20T11:44:42;6.67;;;1.37;;
41966;SDS011;27656;53.068;8.818;2023-12-20T11:47:08;16.80;;;3.57;;
41966;SDS011;27656;53.068;8.818;2023-12-20T11:49:37;14.33;;;1.67;;
41966;SDS011;27656;53.068;8.818;2023-12-20T11:52:04;10.43;;;1.50;;
41966;SDS011;27656;53.068;8.818;2023-12-20T11:54:31;6.93;;;1.20;;
41966;SDS011;27656;53.068;8.818;2023-12-20T11:56:58;9.67;;;1.70;;
41966;SDS011;27656;53.068;8.818;2023-12-20T11:59:31;10.23;;;1.77;;
41966;SDS011;27656;53.068;8.818;2023-12-20T12:01:58;9.47;;;1.67;;
41966;SDS011;27656;53.068;8.818;2023-12-20T12:04:30;11.80;;;1.63;;
41966;SDS011;27656;53.068;8.818;2023-12-20T12:06:57;9.13;;;1.70;;
41966;SDS011;27656;53.068;8.818;2023-12-20T12:09:24;8.00;;;1.40;;
41966;SDS011;27656;53.068;8.818;2023-12-20T12:12:04;9.07;;;1.53;;
41966;SDS011;27656;53.068;8.818;2023-12-20T12:14:34;10.57;;;1.70;;
41966;SDS011;27656;53.068;8.818;2023-12-20T12:17:03;10.50;;;1.30;;
41966;SDS011;27656;53.068;8.818;2023-12-20T12:19:33;7.67;;;1.40;;
41966;SDS011;27656;53.068;8.818;2023-12-20T12:22:05;11.60;;;1.87;;
41966;SDS011;27656;53.068;8.818;2023-12-20T12:24:40;9.80;;;2.10;;
41966;SDS011;27656;53.068;8.818;2023-12-20T12:27:08;11.87;;;2.70;;
41966;SDS011;27656;53.068;8.818;2023-12-20T12:29:38;7.77;;;1.57;;
41966;SDS011;27656;53.068;8.818;2023-12-20T12:32:10;9.77;;;2.07;;
41966;SDS011;27656;53.068;8.818;2023-12-20T12:34:43;14.27;;;1.80;;
41966;SDS011;27656;53.068;8.818;2023-12-20T12:37:09;13.60;;;2.10;;
41966;SDS011;27656;53.068;8.818;2023-12-20T12:39:46;6.73;;;1.57;;
41966;SDS011;27656;53.068;8.818;2023-12-20T12:42:14;10.77;;;1.63;;
41966;SDS011;27656;53.068;8.818;2023-12-20T12:44:42;11.33;;;1.70;;
41966;SDS011;27656;53.068;8.818;2023-12-20T12:47:09;9.10;;;1.50;;
41966;SDS011;27656;53.068;8.818;2023-12-20T12:49:35;8.00;;;1.60;;
41966;SDS011;27656;53.068;8.818;2023-12-20T12:52:02;7.17;;;1.87;;
41966;SDS011;27656;53.068;8.818;2023-12-20T12:54:31;12.47;;;1.80;;
41966;SDS011;27656;53.068;8.818;2023-12-20T12:56:57;12.00;;;2.53;;
41966;SDS011;27656;53.068;8.818;2023-12-20T12:59:24;10.97;;;1.93;;
41966;SDS011;27656;53.068;8.818;2023-12-20T13:01:51;12.17;;;2.07;;
41966;SDS011;27656;53.068;8.818;2023-12-20T13:04:17;14.33;;;2.27;;
41966;SDS011;27656;53.068;8.818;2023-12-20T13:06:45;14.17;;;2.07;;
41966;SDS011;27656;53.068;8.818;2023-12-20T13:09:13;12.43;;;2.00;;
41966;SDS011;27656;53.068;8.818;2023-12-20T13:11:46;10.87;;;1.60;;
41966;SDS011;27656;53.068;8.818;2023-12-20T13:14:13;8.37;;;1.67;;
41966;SDS011;27656;53.068;8.818;2023-12-20T13:16:42;11.63;;;2.53;;
41966;SDS011;27656;53.068;8.818;2023-12-20T13:19:11;9.00;;;2.23;;
41966;SDS011;27656;53.068;8.818;2023-12-20T13:21:39;9.13;;;1.77;;
41966;SDS011;27656;53.068;8.818;2023-12-20T13:24:06;14.10;;;2.00;;
41966;SDS011;27656;53.068;8.818;2023-12-20T13:26:39;8.53;;;2.43;;
41966;SDS011;27656;53.068;8.818;2023-12-20T13:29:12;10.30;;;2.30;;
41966;SDS011;27656;53.068;8.818;2023-12-20T13:31:38;9.80;;;1.83;;
41966;SDS011;27656;53.068;8.818;2023-12-20T13:34:12;6.30;;;1.37;;
41966;SDS011;27656;53.068;8.818;2023-12-20T13:36:46;9.60;;;1.80;;
41966;SDS011;27656;53.068;8.818;2023-12-20T13:39:14;14.87;;;2.27;;
41966;SDS011;27656;53.068;8.818;2023-12-20T13:41:40;10.27;;;2.07;;
41966;SDS011;27656;53.068;8.818;2023-12-20T13:44:07;10.13;;;1.80;;
41966;SDS011;27656;53.068;8.818;2023-12-20T13:46:34;10.77;;;2.30;;
41966;SDS011;27656;53.068;8.818;2023-12-20T13:49:01;15.57;;;2.00;;
41966;SDS011;27656;53.068;8.818;2023-12-20T13:51:28;11.33;;;2.20;;
41966;SDS011;27656;53.068;8.818;2023-12-20T13:53:55;12.07;;;2.30;;
41966;SDS011;27656;53.068;8.818;2023-12-20T13:56:21;9.07;;;2.33;;
41966;SDS011;27656;53.068;8.818;2023-12-20T13:58:49;16.13;;;2.80;;
41966;SDS011;27656;53.068;8.818;2023-12-20T14:01:17;11.77;;;2.00;;
41966;SDS011;27656;53.068;8.818;2023-12-20T14:03:44;12.37;;;2.13;;
41966;SDS011;27656;53.068;8.818;2023-12-20T14:06:10;15.83;;;2.67;;
41966;SDS011;27656;53.068;8.818;2023-12-20T14:08:37;15.13;;;2.00;;
41966;SDS011;27656;53.068;8.818;2023-12-20T14:11:08;17.67;;;2.33;;
41966;SDS011;27656;53.068;8.818;2023-12-20T14:13:42;13.53;;;2.00;;
41966;SDS011;27656;53.068;8.818;2023-12-20T14:16:09;17.00;;;2.40;;
41966;SDS011;27656;53.068;8.818;2023-12-20T14:18:43;15.93;;;2.63;;
41966;SDS011;27656;53.068;8.818;2023-12-20T14:21:12;16.93;;;2.57;;
41966;SDS011;27656;53.068;8.818;2023-12-20T14:23:39;13.47;;;2.00;;
41966;SDS011;27656;53.068;8.818;2023-12-20T14:26:08;17.23;;;2.10;;
41966;SDS011;27656;53.068;8.818;2023-12-20T14:28:38;11.77;;;2.00;;
41966;SDS011;27656;53.068;8.818;2023-12-20T14:31:05;13.53;;;2.40;;
41966;SDS011;27656;53.068;8.818;2023-12-20T14:33:32;13.67;;;2.50;;
41966;SDS011;27656;53.068;8.818;2023-12-20T14:36:05;12.07;;;2.27;;
41966;SDS011;27656;53.068;8.818;2023-12-20T14:38:32;12.47;;;1.97;;
41966;SDS011;27656;53.068;8.818;2023-12-20T14:40:58;16.43;;;3.33;;
41966;SDS011;27656;53.068;8.818;2023-12-20T14:43:30;10.03;;;2.50;;
41966;SDS011;27656;53.068;8.818;2023-12-20T14:46:04;12.03;;;2.20;;
41966;SDS011;27656;53.068;8.818;2023-12-20T14:48:31;8.30;;;2.03;;
41966;SDS011;27656;53.068;8.818;2023-12-20T14:50:59;13.97;;;2.80;;
41966;SDS011;27656;53.068;8.818;2023-12-20T14:53:26;11.17;;;2.20;;
41966;SDS011;27656;53.068;8.818;2023-12-20T14:55:52;12.73;;;3.40;;